D/T METAR WX W/DIR W/SPE G/SPE TEMP DEWP
23/05/19 12:50 EGWU 231150Z 22005KT CAVOK 21/06 Q1016 BLU NOSIG SW (220°) 5.8mph 21°C 6°C
23/05/19 11:50 EGWU 231050Z 26005KT CAVOK ///// Q//// BLU NOSIG W (260°) 5.8mph 0°C 0°C
23/05/19 11:50 EGWU 231050Z 26005KT CAVOK ///// Q//// NOSIG W (260°) 5.8mph 0°C 0°C
23/05/19 10:50 EGWU 230950Z 21005KT CAVOK 20/08 Q1017 NOSIG SSW (210°) 5.8mph 20°C 8°C
23/05/19 09:50 EGWU 230850Z 25004KT CAVOK 18/07 Q1017 NOSIG WSW (250°) 4.6mph 18°C 7°C
23/05/19 08:50 EGWU 230750Z 31002KT CAVOK 15/08 Q1017 NOSIG NW (310°) 2.3mph 15°C 8°C
23/05/19 07:50 EGWU 230650Z 25003KT CAVOK 13/07 Q1017 NOSIG WSW (250°) 3.5mph 13°C 7°C
23/05/19 06:50 EGWU 230550Z 23002KT CAVOK 11/07 Q1017 NOSIG SW (230°) 2.3mph 11°C 7°C
23/05/19 05:50 EGWU 230450Z 24002KT CAVOK 09/06 Q1017 NOSIG WSW (240°) 2.3mph 9°C 6°C
23/05/19 04:50 EGWU 230350Z AUTO 25001KT 9999 // OVC210/// 08/05 Q1017 WSW (250°) 1.2mph 8°C 5°C
23/05/19 03:50 EGWU 230250Z AUTO 21003KT 9999 // BKN200/// 08/05 Q1017 SSW (210°) 3.5mph 8°C 5°C
23/05/19 02:50 EGWU 230150Z AUTO 20003KT 9999 // SCT220/// 09/05 Q1018 SSW (200°) 3.5mph 9°C 5°C
23/05/19 01:50 EGWU 230050Z AUTO 23003KT 9999 // SCT230/// 10/05 Q1018 SW (230°) 3.5mph 10°C 5°C
23/05/19 00:50 EGWU 222350Z AUTO 20003KT 9999 // BKN220/// 12/04 Q1018 SSW (200°) 3.5mph 12°C 4°C
22/05/19 23:50 EGWU 222250Z AUTO 18003KT 9999 // FEW150/// 13/04 Q1018 S (180°) 3.5mph 13°C 4°C
22/05/19 22:50 EGWU 222150Z AUTO 23005KT 9999 // BKN150/// BKN220/// 14/04 Q1018 SW (230°) 5.8mph 14°C 4°C
22/05/19 21:50 EGWU 222050Z AUTO 25006KT 9999 // NCD 15/05 Q1018 WSW (250°) 6.9mph 15°C 5°C
22/05/19 20:50 EGWU 221950Z 23006KT CAVOK 17/06 Q1018 NOSIG SW (230°) 6.9mph 17°C 6°C
22/05/19 19:50 EGWU 221850Z 23005KT CAVOK 18/06 Q1018 NOSIG SW (230°) 5.8mph 18°C 6°C
22/05/19 18:50 EGWU 221750Z 23009KT CAVOK 19/07 Q1018 NOSIG SW (230°) 10.4mph 19°C 7°C
22/05/19 17:50 EGWU 221650Z 24008KT CAVOK 20/06 Q1018 NOSIG WSW (240°) 9.2mph 20°C 6°C
22/05/19 16:50 EGWU 221550Z 24011KT CAVOK 20/06 Q1018 NOSIG WSW (240°) 12.7mph 20°C 6°C
22/05/19 15:50 EGWU 221450Z 22009KT CAVOK 21/05 Q1018 NOSIG SW (220°) 10.4mph 21°C 5°C
22/05/19 14:50 EGWU 221350Z 20005KT CAVOK 21/05 Q1019 BLU NOSIG SSW (200°) 5.8mph 21°C 5°C
22/05/19 13:50 EGWU 221250Z 22005KT CAVOK 20/05 Q1019 BLU NOSIG SW (220°) 5.8mph 20°C 5°C
22/05/19 12:50 EGWU 221150Z 28005KT CAVOK 20/06 Q1020 BLU NOSIG W (280°) 5.8mph 20°C 6°C
22/05/19 11:50 EGWU 221050Z 24003KT CAVOK 19/05 Q1020 NOSIG WSW (240°) 3.5mph 19°C 5°C
22/05/19 10:50 EGWU 220950Z 30002KT CAVOK 17/05 Q1020 BLU NOSIG WNW (300°) 2.3mph 17°C 5°C
22/05/19 09:50 EGWU 220850Z AUTO 19002KT 9999 // FEW160/// SCT210/// 16/04 Q1020 S (190°) 2.3mph 16°C 4°C
22/05/19 08:50 EGWU 220750Z AUTO 13002KT 9999 // BKN150/// 13/04 Q1020 SE (130°) 2.3mph 13°C 4°C
22/05/19 07:50 EGWU 220650Z 31001KT 9999 FEW048 SCT160 BKN210 12/04 Q1020 BLU NOSIG NW (310°) 1.2mph 12°C 4°C
22/05/19 06:50 EGWU 220550Z 32003KT 9999 FEW048 SCT180 BKN220 09/05 Q1020 NOSIG NW (320°) 3.5mph 9°C 5°C
22/05/19 05:50 EGWU 220450Z AUTO 25002KT 9999 // BKN170/// BKN220/// 09/04 Q1020 WSW (250°) 2.3mph 9°C 4°C
22/05/19 04:50 EGWU 220350Z AUTO 00000KT 9999 // OVC180/// 09/04 Q1020 N (0°) 9°C 4°C
22/05/19 03:50 EGWU 220250Z AUTO 24002KT 9999 // FEW070/// OVC200/// 09/04 Q1020 WSW (240°) 2.3mph 9°C 4°C
22/05/19 02:50 EGWU 220150Z AUTO 33001KT 9999 // FEW070/// BKN220/// 09/04 Q1020 NNW (330°) 1.2mph 9°C 4°C
22/05/19 01:50 EGWU 220050Z AUTO 33003KT 9999 // SCT240/// 09/05 Q1020 NNW (330°) 3.5mph 9°C 5°C
22/05/19 00:50 EGWU 212350Z AUTO 32002KT 9999 // NCD 10/05 Q1019 NW (320°) 2.3mph 10°C 5°C
21/05/19 23:50 EGWU 212250Z AUTO 34003KT 9999 // NCD 11/06 Q1020 NNW (340°) 3.5mph 11°C 6°C
21/05/19 22:50 EGWU 212150Z AUTO 35003KT 9999 // NCD 12/06 Q1019 N (350°) 3.5mph 12°C 6°C
21/05/19 21:50 EGWU 212050Z 35004KT CAVOK 14/06 Q1019 N (350°) 4.6mph 14°C 6°C
21/05/19 20:50 EGWU 211950Z 33005KT CAVOK 16/06 Q1019 NOSIG NNW (330°) 5.8mph 16°C 6°C
21/05/19 19:50 EGWU 211850Z 34008KT CAVOK 18/06 Q1018 BLU NOSIG NNW (340°) 9.2mph 18°C 6°C
21/05/19 18:50 EGWU 211750Z 33009KT CAVOK 19/05 Q1018 NOSIG NNW (330°) 10.4mph 19°C 5°C
21/05/19 17:50 EGWU 211650Z 33008KT CAVOK 19/05 Q1018 NOSIG NNW (330°) 9.2mph 19°C 5°C
21/05/19 16:50 EGWU 211550Z 36008KT CAVOK 20/07 Q1018 NOSIG N (360°) 9.2mph 20°C 7°C
21/05/19 15:50 EGWU 211450Z 35009KT CAVOK 20/05 Q1018 NOSIG N (350°) 10.4mph 20°C 5°C
21/05/19 14:50 EGWU 211350Z 36009KT CAVOK 20/06 Q1018 NOSIG N (360°) 10.4mph 20°C 6°C